Página principal
METAR-TAF:

METAR-TAF

Aeroportos :

Pyongyang, Coreia do Norte

latitude: 39-02N, longitude: 125-47E, altura: 36 m

METAR: em falta

Hora: 22:06 (13:36 UTC)

Previsão

O boletim foi feito há 8 horas e 56 minutos, às 04:40 UTC
Previsão válida de 25 às 06 UTC a 26 às 06 UTC
Vento 8 kt de oes-sudoeste
Visibilidade 10 km ou mais
sem nuvens abaixo de 1500 metros e sem cumulonimbus
Tornando-se
de 25 às 12 UTC a 25 às 14 UTC
Visibilidade: 6000 m
Tornando-se
de 26 às 01 UTC a 26 às 03 UTC
Vento 8 kt de sul
Nuvens dispersasa uma altura de 2000 ft
Nuvens fragmentadasa uma altura de 4000 ft

TAF: ZKPY 250440Z 2506/2606 25004MPS CAVOK BECMG 2512/2514 6000 NSC BECMG 2601/2603 17004MPS SCT020 BKN040

Observações e previsões do tempo de mais de 4000 aeroportos (mensagens METAR e TAF).

As estações disponíveis são os pontos amarelos e vermelhos sobre o mapa.

Mova o rato sobre o mapa para ver o nome da estação.

Depois clique no ponto para visualizar as observações e previsões meteorológicas.

Para alterar o mapa : clique nos botões verdes com uma cruz preta para aumentar o zoom; no botão verde com uma pitada de zoom; ou nas setas verdes para mapas adjacentes.


METAR-TAF: